Time;durP1;ratioP1;P1;durP2;ratioP2;P2;SDS_P1;SDS_P2;PMS_P1;PMS_P2;Temp;Humidity;BMP_temperature;BMP_pressure;BME280_temperature;BME280_humidity;BME280_pressure;Samples;Min_cycle;Max_cycle;Signal;HPM_P1;HPM_P2
2021/06/15 00:02:02;;;;;;;5.17;3.83;;;20.20;70.60;;;;;;10456578;28;20198;-80
2021/06/15 00:07:06;;;;;;;4.80;4.40;;;20.10;70.30;;;;;;10452952;28;20232;-80
2021/06/15 00:12:09;;;;;;;4.10;3.77;;;20.00;70.40;;;;;;10435982;28;20233;-80
2021/06/15 00:17:11;;;;;;;3.87;3.50;;;19.90;70.60;;;;;;10452953;28;20650;-80
2021/06/15 00:22:15;;;;;;;4.40;4.10;;;19.90;71.10;;;;;;10449015;28;20233;-80
2021/06/15 00:27:17;;;;;;;4.80;4.10;;;19.70;71.50;;;;;;10452785;28;20735;-80
2021/06/15 00:32:19;;;;;;;4.03;3.63;;;19.60;72.40;;;;;;10429294;28;20232;-79
2021/06/15 00:37:23;;;;;;;3.67;3.40;;;19.60;72.70;;;;;;10446393;28;20375;-80
2021/06/15 00:42:25;;;;;;;3.77;3.53;;;19.60;72.80;;;;;;10454022;28;20299;-79
2021/06/15 00:47:28;;;;;;;3.57;3.27;;;19.50;73.10;;;;;;10436407;28;20229;-80
2021/06/15 00:52:34;;;;;;;6.27;3.60;;;19.50;73.40;;;;;;10436210;28;20232;-80
2021/06/15 00:57:36;;;;;;;3.40;3.10;;;19.50;73.00;;;;;;10452665;28;20279;-80
2021/06/15 01:02:39;;;;;;;5.90;3.77;;;19.50;74.30;;;;;;10431300;28;20229;-80
2021/06/15 01:07:50;;;;;;;3.40;3.20;;;19.50;75.20;;;;;;10435662;28;20209;-80
2021/06/15 01:13:17;;;;;;;4.20;3.90;;;19.50;73.30;;;;;;10454367;28;20634;-81
2021/06/15 01:18:23;;;;;;;4.10;3.80;;;19.50;74.40;;;;;;10455156;28;20215;-80
2021/06/15 01:23:48;;;;;;;3.77;3.57;;;19.50;74.70;;;;;;10451302;28;20217;-80
2021/06/15 01:28:57;;;;;;;4.23;3.60;;;19.50;74.50;;;;;;10431884;28;20288;-79
2021/06/15 01:34:05;;;;;;;4.50;4.00;;;19.40;75.10;;;;;;10460004;28;20248;-79
2021/06/15 01:39:14;;;;;;;3.87;3.67;;;19.20;76.10;;;;;;10449056;28;20226;-79
2021/06/15 01:44:19;;;;;;;5.13;4.63;;;19.20;76.30;;;;;;10459578;28;20245;-80
2021/06/15 01:49:24;;;;;;;4.30;3.90;;;19.20;77.40;;;;;;10458928;28;20209;-80
2021/06/15 01:54:28;;;;;;;4.47;4.03;;;19.20;77.30;;;;;;10453414;28;20235;-80
2021/06/15 01:59:41;;;;;;;7.83;4.20;;;19.10;77.30;;;;;;10458204;28;20280;-80
2021/06/15 02:04:46;;;;;;;4.87;4.43;;;19.10;77.70;;;;;;10457510;28;20217;-79
2021/06/15 02:09:53;;;;;;;5.10;4.70;;;19.00;78.10;;;;;;10440955;28;20740;-80
2021/06/15 02:15:22;;;;;;;4.50;4.20;;;19.00;76.40;;;;;;10451293;28;20221;-80
2021/06/15 02:20:45;;;;;;;4.57;4.27;;;19.00;76.40;;;;;;10441115;28;20272;-80
2021/06/15 02:25:53;;;;;;;4.33;4.03;;;18.80;77.80;;;;;;10457492;28;20244;-80
2021/06/15 02:30:59;;;;;;;4.63;4.33;;;18.70;77.60;;;;;;10456078;28;20707;-79
2021/06/15 02:36:06;;;;;;;4.63;4.23;;;18.70;78.80;;;;;;10450586;28;20225;-80
2021/06/15 02:41:12;;;;;;;4.10;3.80;;;18.70;79.30;;;;;;10440634;28;20622;-80
2021/06/15 02:46:20;;;;;;;4.63;4.33;;;18.70;80.10;;;;;;10457660;28;20209;-80
2021/06/15 02:51:29;;;;;;;6.17;4.20;;;18.70;78.50;;;;;;10456134;28;20194;-79
2021/06/15 02:56:37;;;;;;;4.60;4.30;;;18.70;78.50;;;;;;10441628;28;20225;-79
2021/06/15 03:01:47;;;;;;;5.90;4.27;;;18.70;77.70;;;;;;10440463;28;20240;-79
2021/06/15 03:06:49;;;;;;;5.20;4.70;;;18.60;77.80;;;;;;10442979;28;20284;-80
2021/06/15 03:12:03;;;;;;;5.10;4.70;;;18.50;79.90;;;;;;10456289;28;20284;-80
2021/06/15 03:17:10;;;;;;;4.70;4.30;;;18.50;80.90;;;;;;10455838;28;20228;-80
2021/06/15 03:22:16;;;;;;;4.83;4.53;;;18.50;79.60;;;;;;10462835;28;20278;-78
2021/06/15 03:27:30;;;;;;;6.03;4.40;;;18.50;80.50;;;;;;10470040;28;20216;-78
2021/06/15 03:32:40;;;;;;;5.20;4.80;;;18.50;80.30;;;;;;10456351;28;20229;-79
2021/06/15 03:37:50;;;;;;;5.27;4.87;;;18.50;79.90;;;;;;10467110;28;20274;-79
2021/06/15 03:42:55;;;;;;;5.20;4.70;;;18.40;81.00;;;;;;10465928;28;20715;-78
2021/06/15 03:48:02;;;;;;;5.03;4.63;;;18.40;81.10;;;;;;10468298;28;20236;-78
2021/06/15 03:53:08;;;;;;;5.40;5.00;;;18.40;80.50;;;;;;10453146;28;20328;-78
2021/06/15 03:58:12;;;;;;;4.87;4.47;;;18.40;80.90;;;;;;10445712;28;20258;-78
2021/06/15 04:03:16;;;;;;;5.57;5.07;;;18.40;82.20;;;;;;10451234;28;20283;-78
2021/06/15 04:08:20;;;;;;;6.10;5.60;;;18.50;80.90;;;;;;10454704;28;20193;-78
2021/06/15 04:13:25;;;;;;;5.37;4.83;;;18.50;81.90;;;;;;10453829;28;20275;-79
2021/06/15 04:18:30;;;;;;;5.97;5.37;;;18.50;81.30;;;;;;10453536;28;20213;-80
2021/06/15 04:23:40;;;;;;;5.40;4.90;;;18.50;81.40;;;;;;10432963;28;20220;-80
2021/06/15 04:28:42;;;;;;;4.97;4.67;;;18.50;81.70;;;;;;10455061;28;20207;-79
2021/06/15 04:33:48;;;;;;;5.10;4.70;;;18.40;81.90;;;;;;10467998;28;20379;-79
2021/06/15 04:38:57;;;;;;;4.93;4.60;;;18.40;81.80;;;;;;10461164;28;20206;-78
2021/06/15 04:44:04;;;;;;;6.67;5.20;;;18.50;82.50;;;;;;10436652;28;20217;-80
2021/06/15 04:49:12;;;;;;;6.27;5.23;;;18.50;82.20;;;;;;10459926;28;20294;-80
2021/06/15 04:54:19;;;;;;;5.40;5.00;;;18.50;83.00;;;;;;10458975;22;20630;-80
2021/06/15 04:59:22;;;;;;;6.00;5.50;;;18.60;82.70;;;;;;10425368;28;20681;-79
2021/06/15 05:04:26;;;;;;;8.13;5.60;;;18.60;83.70;;;;;;10439815;28;20222;-79
2021/06/15 05:09:31;;;;;;;5.93;5.43;;;18.60;83.10;;;;;;10459048;28;20665;-79
2021/06/15 05:14:35;;;;;;;5.90;5.30;;;18.60;83.20;;;;;;10454245;28;20249;-79
2021/06/15 05:19:41;;;;;;;5.20;4.70;;;18.60;84.30;;;;;;10464968;28;20201;-79
2021/06/15 05:24:51;;;;;;;6.23;5.63;;;18.70;83.20;;;;;;10469812;28;20221;-79
2021/06/15 05:29:53;;;;;;;5.33;4.90;;;18.80;84.20;;;;;;10446130;28;20209;-78
2021/06/15 05:34:57;;;;;;;5.67;5.17;;;18.80;84.70;;;;;;10462123;28;20323;-79
2021/06/15 05:39:59;;;;;;;6.30;5.70;;;18.90;85.20;;;;;;10457557;28;20239;-78
2021/06/15 05:45:01;;;;;;;6.27;5.77;;;19.00;85.30;;;;;;10449806;28;20245;-78
2021/06/15 05:50:06;;;;;;;5.70;5.20;;;19.10;85.70;;;;;;10462752;28;20205;-78
2021/06/15 05:55:11;;;;;;;6.20;5.60;;;19.20;84.00;;;;;;10457485;28;20225;-78
2021/06/15 06:00:14;;;;;;;6.70;6.20;;;19.30;85.20;;;;;;10459468;28;20280;-79
2021/06/15 06:10:39;;;;;;;5.97;5.17;;;19.40;84.80;;;;;;10456456;28;20201;-79
2021/06/15 06:15:42;;;;;;;6.47;5.93;;;19.50;84.90;;;;;;10456268;28;20243;-79
2021/06/15 06:20:45;;;;;;;5.80;5.40;;;19.60;84.90;;;;;;10460838;28;20197;-79
2021/06/15 06:25:47;;;;;;;7.17;6.47;;;19.80;86.00;;;;;;10455875;28;20722;-79
2021/06/15 06:30:49;;;;;;;8.90;5.63;;;19.90;86.50;;;;;;10452035;28;20209;-80
2021/06/15 06:35:55;;;;;;;7.20;6.50;;;20.00;86.10;;;;;;10452816;28;20233;-79
2021/06/15 06:40:58;;;;;;;6.00;5.50;;;20.20;86.10;;;;;;10453582;28;20205;-79
2021/06/15 06:46:00;;;;;;;5.80;5.40;;;20.50;86.30;;;;;;10460261;28;20221;-79
2021/06/15 06:51:04;;;;;;;5.87;5.37;;;20.90;86.00;;;;;;10463221;28;20255;-79
2021/06/15 06:56:07;;;;;;;6.13;5.60;;;21.30;84.80;;;;;;10453392;28;20320;-79
2021/06/15 07:01:09;;;;;;;7.50;5.80;;;21.70;83.10;;;;;;10460257;28;20205;-80
2021/06/15 07:06:12;;;;;;;5.93;5.43;;;22.10;81.40;;;;;;10457764;28;20261;-80
2021/06/15 07:11:15;;;;;;;5.57;5.07;;;22.50;80.40;;;;;;10452627;28;20255;-79
2021/06/15 07:16:17;;;;;;;5.50;5.00;;;22.90;79.20;;;;;;10441543;28;20241;-79
2021/06/15 07:21:20;;;;;;;5.17;4.67;;;23.40;77.80;;;;;;10440286;28;20661;-79
2021/06/15 07:26:23;;;;;;;6.37;4.50;;;24.00;77.20;;;;;;10459245;28;20288;-79
2021/06/15 07:31:25;;;;;;;6.40;5.33;;;24.60;75.30;;;;;;10457011;28;20229;-79
2021/06/15 07:36:28;;;;;;;6.40;5.73;;;25.20;73.40;;;;;;10449802;28;20228;-79
2021/06/15 07:41:30;;;;;;;4.97;4.47;;;25.80;72.40;;;;;;10440866;28;20209;-79
2021/06/15 07:46:33;;;;;;;7.50;5.00;;;26.50;70.00;;;;;;10458075;28;20228;-79
2021/06/15 07:51:36;;;;;;;6.43;5.03;;;27.00;68.90;;;;;;10454762;28;20205;-80
2021/06/15 07:56:38;;;;;;;6.00;5.40;;;27.50;65.60;;;;;;10460376;28;20229;-80
2021/06/15 08:01:41;;;;;;;5.80;5.30;;;28.00;62.30;;;;;;10457334;28;20805;-80
2021/06/15 08:06:44;;;;;;;8.03;5.67;;;28.50;61.40;;;;;;10458648;28;20756;-80
2021/06/15 08:11:47;;;;;;;6.60;5.30;;;29.00;61.70;;;;;;10442149;28;20320;-80
2021/06/15 08:16:49;;;;;;;5.17;4.73;;;29.40;61.00;;;;;;10458513;28;20751;-80
2021/06/15 08:21:53;;;;;;;7.47;4.60;;;29.80;59.00;;;;;;10435171;28;20621;-80
2021/06/15 08:26:55;;;;;;;5.73;4.10;;;30.30;58.20;;;;;;10464415;28;20236;-80
2021/06/15 08:31:57;;;;;;;4.13;3.77;;;30.90;56.10;;;;;;10472848;28;20575;-80
2021/06/15 08:37:00;;;;;;;4.30;3.90;;;31.30;55.30;;;;;;10455300;28;20259;-80
2021/06/15 08:42:05;;;;;;;10.47;4.83;;;31.70;54.20;;;;;;10463426;28;20284;-80
2021/06/15 08:47:07;;;;;;;7.17;3.57;;;31.90;51.50;;;;;;10464446;28;20302;-80
2021/06/15 08:52:11;;;;;;;5.33;3.77;;;32.20;51.60;;;;;;10447431;28;20205;-80
2021/06/15 08:57:18;;;;;;;4.93;4.47;;;32.40;50.20;;;;;;10470668;28;20233;-80
2021/06/15 09:02:20;;;;;;;5.53;3.43;;;32.60;48.70;;;;;;10471612;28;20201;-80
2021/06/15 09:07:24;;;;;;;4.50;4.10;;;32.80;48.60;;;;;;10457073;28;20209;-80
2021/06/15 09:12:26;;;;;;;3.60;3.40;;;33.10;46.90;;;;;;10475537;28;20201;-80
2021/06/15 09:17:36;;;;;;;4.13;3.73;;;33.30;47.80;;;;;;10465705;28;20312;-80
2021/06/15 09:22:39;;;;;;;3.90;3.60;;;33.60;46.50;;;;;;10462528;28;20275;-80
2021/06/15 09:27:42;;;;;;;3.77;3.47;;;33.70;46.20;;;;;;10460389;28;20283;-80
2021/06/15 09:32:46;;;;;;;8.70;3.70;;;34.20;47.30;;;;;;10462613;28;20649;-80
2021/06/15 09:37:51;;;;;;;3.70;3.33;;;34.70;43.60;;;;;;10459621;28;20220;-80
2021/06/15 09:43:00;;;;;;;3.30;3.10;;;35.30;43.70;;;;;;10462753;28;20250;-81
2021/06/15 09:48:23;;;;;;;3.50;3.20;;;36.30;40.70;;;;;;10462191;28;20204;-81
2021/06/15 09:53:29;;;;;;;4.13;3.80;;;37.30;40.30;;;;;;10459078;28;20247;-81
2021/06/15 09:58:45;;;;;;;4.25;3.25;;;38.60;39.80;;;;;;10462212;28;20282;-81
2021/06/15 10:03:47;;;;;;;4.40;4.00;;;39.90;36.50;;;;;;10448619;28;20611;-81
2021/06/15 10:08:50;;;;;;;3.65;3.25;;;40.70;34.60;;;;;;10465329;28;20676;-81
2021/06/15 10:13:53;;;;;;;3.28;3.08;;;41.10;36.50;;;;;;10459322;28;20224;-81
2021/06/15 10:18:55;;;;;;;3.53;3.30;;;41.50;35.30;;;;;;10436055;28;20220;-81
2021/06/15 10:23:59;;;;;;;3.47;3.17;;;41.90;33.40;;;;;;10432422;28;20227;-80
2021/06/15 10:29:09;;;;;;;3.37;3.07;;;40.70;33.20;;;;;;10438882;28;20256;-80
2021/06/15 10:34:12;;;;;;;3.60;3.30;;;38.50;33.70;;;;;;10423586;28;20224;-80
2021/06/15 10:39:37;;;;;;;3.50;3.27;;;36.60;36.60;;;;;;10442762;28;20213;-80
2021/06/15 10:44:39;;;;;;;6.00;2.90;;;35.00;37.20;;;;;;10427412;28;20652;-80
2021/06/15 10:49:57;;;;;;;3.60;3.30;;;33.70;38.90;;;;;;10426919;28;20201;-80
2021/06/15 10:55:00;;;;;;;4.13;3.57;;;32.70;39.90;;;;;;10422713;28;20228;-79
2021/06/15 11:00:12;;;;;;;3.73;3.43;;;31.90;41.50;;;;;;10439543;28;20194;-80
2021/06/15 11:05:41;;;;;;;4.60;3.70;;;31.20;42.60;;;;;;10444200;22;20253;-80
2021/06/15 11:10:46;;;;;;;3.33;3.13;;;30.70;43.10;;;;;;10423672;28;20276;-79
2021/06/15 11:15:58;;;;;;;3.83;3.10;;;30.20;43.30;;;;;;10451274;28;20304;-79
2021/06/15 11:21:16;;;;;;;3.70;3.50;;;29.90;42.70;;;;;;10460289;28;20217;-79
2021/06/15 11:26:19;;;;;;;3.03;2.83;;;29.60;44.80;;;;;;10442656;28;20671;-79
2021/06/15 11:31:38;;;;;;;3.73;3.30;;;29.40;44.50;;;;;;10434815;28;20589;-79
2021/06/15 11:36:42;;;;;;;4.67;3.07;;;29.20;44.30;;;;;;10441304;28;20685;-79
2021/06/15 11:42:19;;;;;;;3.03;2.60;;;28.80;45.90;;;;;;10439611;28;20213;-79
2021/06/15 11:47:36;;;;;;;5.57;3.00;;;28.60;44.30;;;;;;10452976;28;20206;-79
2021/06/15 11:52:40;;;;;;;3.20;2.90;;;28.30;43.70;;;;;;10448091;28;20768;-79
2021/06/15 11:57:44;;;;;;;3.60;3.40;;;28.10;44.20;;;;;;10452035;28;20391;-79
2021/06/15 12:02:47;;;;;;;3.30;3.10;;;27.90;45.00;;;;;;10442874;28;20501;-79
2021/06/15 12:07:53;;;;;;;3.40;3.20;;;27.80;45.80;;;;;;10452097;28;20280;-79
2021/06/15 12:13:00;;;;;;;3.17;2.97;;;27.70;45.30;;;;;;10452331;28;20274;-79
2021/06/15 12:18:02;;;;;;;2.20;2.00;;;27.70;47.50;;;;;;10453641;28;20232;-79
2021/06/15 12:23:26;;;;;;;2.97;2.63;;;27.70;45.20;;;;;;10455066;28;20311;-80
2021/06/15 12:28:29;;;;;;;3.53;3.23;;;27.80;46.00;;;;;;10439558;28;20200;-80
2021/06/15 12:33:32;;;;;;;3.33;3.13;;;27.90;43.50;;;;;;10451194;28;20237;-79
2021/06/15 12:38:34;;;;;;;2.97;2.70;;;28.10;45.70;;;;;;10452948;28;20247;-79
2021/06/15 12:43:38;;;;;;;3.70;3.20;;;28.10;44.30;;;;;;10447807;28;20217;-79
2021/06/15 12:48:53;;;;;;;3.70;3.40;;;28.30;45.50;;;;;;10448467;28;20277;-79
2021/06/15 12:54:02;;;;;;;2.93;2.77;;;28.30;46.30;;;;;;10420966;28;20223;-79
2021/06/15 12:59:15;;;;;;;2.90;2.70;;;28.30;46.00;;;;;;10441945;28;20228;-79
2021/06/15 13:04:19;;;;;;;3.10;2.90;;;28.30;45.80;;;;;;10435873;28;20228;-79
2021/06/15 13:09:26;;;;;;;3.37;3.07;;;28.20;46.60;;;;;;10438534;28;20633;-78
2021/06/15 13:14:34;;;;;;;3.70;3.40;;;28.10;46.10;;;;;;10438917;28;20570;-79
2021/06/15 13:19:43;;;;;;;3.20;3.00;;;28.00;45.90;;;;;;10446151;28;20767;-79
2021/06/15 13:24:47;;;;;;;3.27;3.07;;;27.90;46.60;;;;;;10445958;28;20225;-79
2021/06/15 13:29:58;;;;;;;3.37;3.00;;;27.90;44.80;;;;;;10445695;28;20197;-79
2021/06/15 13:35:09;;;;;;;3.17;2.97;;;27.80;46.60;;;;;;10446006;28;20227;-79
2021/06/15 13:40:14;;;;;;;2.93;2.70;;;27.80;44.40;;;;;;10447037;28;20268;-79
2021/06/15 13:45:20;;;;;;;2.97;2.77;;;27.70;45.60;;;;;;10464795;28;20334;-79
2021/06/15 13:50:22;;;;;;;3.80;3.27;;;27.50;48.50;;;;;;10456857;28;20201;-79
2021/06/15 13:55:24;;;;;;;2.97;2.77;;;27.50;45.00;;;;;;10444954;28;20264;-79
2021/06/15 14:00:28;;;;;;;2.53;2.43;;;27.50;44.90;;;;;;10438058;28;20208;-79
2021/06/15 14:05:31;;;;;;;2.43;2.33;;;27.50;43.00;;;;;;10456964;28;20286;-78
2021/06/15 14:10:36;;;;;;;2.33;2.17;;;27.50;43.20;;;;;;10458810;28;20211;-79
2021/06/15 14:15:40;;;;;;;3.03;2.83;;;27.50;44.40;;;;;;10466063;28;20205;-79
2021/06/15 14:20:42;;;;;;;2.90;2.70;;;27.40;46.00;;;;;;10458638;28;20205;-79
2021/06/15 14:25:44;;;;;;;3.00;2.80;;;27.30;46.90;;;;;;10457533;28;20343;-79
2021/06/15 14:30:47;;;;;;;2.97;2.33;;;27.30;43.20;;;;;;10456600;28;20212;-79
2021/06/15 14:35:50;;;;;;;3.17;2.97;;;27.40;44.00;;;;;;10461928;28;22081;-79
2021/06/15 14:40:52;;;;;;;2.80;2.60;;;27.50;42.60;;;;;;10458548;28;20248;-78
2021/06/15 14:45:55;;;;;;;2.90;2.67;;;27.40;45.60;;;;;;10456139;28;20207;-79
2021/06/15 14:50:58;;;;;;;3.50;2.90;;;27.30;44.80;;;;;;10456295;28;20697;-79
2021/06/15 14:56:00;;;;;;;2.97;2.67;;;27.40;44.90;;;;;;10456212;28;20218;-78
2021/06/15 15:01:04;;;;;;;3.10;2.80;;;27.40;44.10;;;;;;10455631;28;20225;-79
2021/06/15 15:06:06;;;;;;;2.50;2.40;;;27.40;43.50;;;;;;10453847;28;20204;-78
2021/06/15 15:11:09;;;;;;;3.00;2.70;;;27.40;44.10;;;;;;10454255;28;20684;-79
2021/06/15 15:16:13;;;;;;;2.57;2.37;;;27.40;43.60;;;;;;10455229;28;20213;-79
2021/06/15 15:21:17;;;;;;;2.87;2.67;;;27.40;45.10;;;;;;10456519;28;20237;-79
2021/06/15 15:26:19;;;;;;;2.60;2.40;;;27.30;42.70;;;;;;10455034;28;20209;-80
2021/06/15 15:31:23;;;;;;;3.90;2.80;;;27.30;42.90;;;;;;10455880;28;20225;-79
2021/06/15 15:36:26;;;;;;;3.57;2.80;;;27.30;44.10;;;;;;10453039;28;20259;-79
2021/06/15 15:41:28;;;;;;;4.20;2.83;;;27.30;45.40;;;;;;10455751;28;20217;-79
2021/06/15 15:46:32;;;;;;;2.73;2.53;;;27.30;44.80;;;;;;10455231;28;20576;-78
2021/06/15 15:51:34;;;;;;;2.70;2.50;;;27.40;44.00;;;;;;10452536;28;20304;-78
2021/06/15 15:56:37;;;;;;;2.53;2.33;;;27.30;46.20;;;;;;10453673;28;20221;-78
2021/06/15 16:01:41;;;;;;;2.70;2.50;;;27.20;42.30;;;;;;10454696;28;20231;-78
2021/06/15 16:06:43;;;;;;;2.27;2.07;;;27.20;43.70;;;;;;10458366;28;20197;-78
2021/06/15 16:11:45;;;;;;;2.40;2.30;;;27.20;44.20;;;;;;10454557;28;20284;-77
2021/06/15 16:16:49;;;;;;;2.83;2.10;;;27.10;43.90;;;;;;10453854;28;20209;-78
2021/06/15 16:21:51;;;;;;;3.03;2.50;;;27.10;44.60;;;;;;10436115;28;20833;-78
2021/06/15 16:26:54;;;;;;;2.90;2.70;;;27.10;46.00;;;;;;10453276;28;20221;-78
2021/06/15 16:31:57;;;;;;;2.50;2.40;;;27.10;44.40;;;;;;10451860;28;20278;-77
2021/06/15 16:36:59;;;;;;;2.80;2.60;;;27.00;45.20;;;;;;10450954;28;20854;-78
2021/06/15 16:42:02;;;;;;;3.20;2.67;;;27.00;45.50;;;;;;10451468;28;20700;-78
2021/06/15 16:47:06;;;;;;;2.70;2.50;;;27.00;45.10;;;;;;10434529;28;20205;-78
2021/06/15 16:52:08;;;;;;;8.37;2.90;;;27.10;42.80;;;;;;10457428;28;20304;-78
2021/06/15 16:57:10;;;;;;;3.97;2.80;;;27.10;46.80;;;;;;10460864;28;20213;-78
2021/06/15 17:02:14;;;;;;;3.13;2.60;;;27.10;44.90;;;;;;10459867;28;20225;-78
2021/06/15 17:07:16;;;;;;;2.70;2.60;;;27.10;45.40;;;;;;10443650;28;20209;-78
2021/06/15 17:12:18;;;;;;;3.20;2.90;;;27.10;46.50;;;;;;10460922;28;20637;-78
2021/06/15 17:17:22;;;;;;;2.23;2.13;;;27.10;46.10;;;;;;10461691;28;20216;-78
2021/06/15 17:22:24;;;;;;;2.90;2.70;;;27.00;47.70;;;;;;10460929;28;20263;-78
2021/06/15 17:27:26;;;;;;;2.77;2.57;;;26.90;45.90;;;;;;10468135;28;20203;-77
2021/06/15 17:32:30;;;;;;;3.50;3.30;;;26.90;46.90;;;;;;10463464;28;20223;-78
2021/06/15 17:37:32;;;;;;;2.73;2.53;;;26.90;48.30;;;;;;10464359;28;20255;-78
2021/06/15 17:42:34;;;;;;;2.70;2.50;;;26.80;48.70;;;;;;10465669;28;20228;-79
2021/06/15 17:47:38;;;;;;;3.17;2.43;;;26.80;49.50;;;;;;10467515;28;20197;-78
2021/06/15 17:52:41;;;;;;;4.10;3.00;;;26.70;46.70;;;;;;10470382;28;20770;-79
2021/06/15 17:57:45;;;;;;;2.80;2.70;;;26.70;46.30;;;;;;10472532;28;20243;-78
2021/06/15 18:02:48;;;;;;;2.57;2.40;;;26.60;48.60;;;;;;10465984;28;20313;-79
2021/06/15 18:07:53;;;;;;;3.13;2.93;;;26.60;48.90;;;;;;10464589;28;20314;-79
2021/06/15 18:12:56;;;;;;;3.30;3.00;;;26.50;50.50;;;;;;10463599;28;20220;-79
2021/06/15 18:18:00;;;;;;;2.80;2.60;;;26.30;48.70;;;;;;10463167;28;20240;-79
2021/06/15 18:23:02;;;;;;;4.40;2.90;;;26.30;47.80;;;;;;10462798;28;20239;-79
2021/06/15 18:28:06;;;;;;;10.53;9.33;;;26.20;51.10;;;;;;10464109;28;20227;-79
2021/06/15 18:33:09;;;;;;;10.10;6.13;;;26.10;48.80;;;;;;10463284;28;20240;-79
2021/06/15 18:38:12;;;;;;;5.73;4.00;;;26.00;52.10;;;;;;10461495;28;20221;-79
2021/06/15 18:43:14;;;;;;;5.00;4.00;;;26.00;52.80;;;;;;10463176;28;20252;-78
2021/06/15 18:48:19;;;;;;;3.30;3.10;;;25.80;53.40;;;;;;10462018;28;20197;-78
2021/06/15 18:53:21;;;;;;;3.03;2.83;;;25.70;53.60;;;;;;10460856;28;20275;-78
2021/06/15 18:58:23;;;;;;;3.60;3.30;;;25.60;53.50;;;;;;10459114;28;20591;-78
2021/06/15 19:03:27;;;;;;;3.00;2.80;;;25.40;54.20;;;;;;10459987;28;20286;-79
2021/06/15 19:08:29;;;;;;;3.03;2.70;;;25.30;54.30;;;;;;10457674;28;20209;-78
2021/06/15 19:13:31;;;;;;;2.70;2.50;;;25.20;54.00;;;;;;10458950;28;20217;-78
2021/06/15 19:18:34;;;;;;;4.40;3.00;;;25.00;53.60;;;;;;10458581;28;20225;-78
2021/06/15 19:23:42;;;;;;;2.63;2.43;;;24.90;53.90;;;;;;10456984;28;20275;-79
2021/06/15 19:28:47;;;;;;;2.80;2.60;;;24.70;54.90;;;;;;10461142;28;20236;-79
2021/06/15 19:33:50;;;;;;;3.53;3.20;;;24.60;54.80;;;;;;10460641;28;20295;-79
2021/06/15 19:38:52;;;;;;;4.93;3.17;;;24.40;54.50;;;;;;10460115;28;20336;-78
2021/06/15 19:43:54;;;;;;;4.20;3.57;;;24.30;54.20;;;;;;10460859;28;20225;-78
2021/06/15 19:48:58;;;;;;;4.73;2.80;;;24.20;54.70;;;;;;10462196;28;20193;-77
2021/06/15 19:54:00;;;;;;;4.37;3.20;;;24.10;53.90;;;;;;10459025;28;20218;-78
2021/06/15 19:59:03;;;;;;;3.20;2.93;;;24.10;54.20;;;;;;10458403;28;20252;-78
2021/06/15 20:04:06;;;;;;;3.30;3.10;;;24.00;54.50;;;;;;10456325;28;20244;-77
2021/06/15 20:09:09;;;;;;;3.50;3.20;;;24.00;55.10;;;;;;10456880;28;20285;-78
2021/06/15 20:14:11;;;;;;;3.50;3.30;;;23.90;55.50;;;;;;10458955;28;20221;-78
2021/06/15 20:19:16;;;;;;;4.20;3.90;;;23.80;55.40;;;;;;10460251;28;20389;-78
2021/06/15 20:24:18;;;;;;;4.13;3.73;;;23.80;55.80;;;;;;10452671;28;20221;-79
2021/06/15 20:29:20;;;;;;;3.60;3.27;;;23.80;54.90;;;;;;10454694;28;20250;-78
2021/06/15 20:34:24;;;;;;;3.70;3.50;;;23.70;55.10;;;;;;10455808;28;20225;-78
2021/06/15 20:39:26;;;;;;;3.60;3.30;;;23.70;54.70;;;;;;10439048;28;20248;-78
2021/06/15 20:44:28;;;;;;;2.93;2.73;;;23.60;55.00;;;;;;10457510;28;20229;-78
2021/06/15 20:49:31;;;;;;;3.90;3.00;;;23.50;55.00;;;;;;10456567;28;20199;-79
2021/06/15 20:54:34;;;;;;;4.03;3.73;;;23.40;55.50;;;;;;10456495;28;20225;-78
2021/06/15 20:59:36;;;;;;;3.10;2.90;;;23.30;55.40;;;;;;10436771;28;20235;-77
2021/06/15 21:04:39;;;;;;;3.30;3.10;;;23.20;55.60;;;;;;10455476;28;20692;-78
2021/06/15 21:09:41;;;;;;;3.37;3.07;;;23.20;56.00;;;;;;10458411;28;20228;-78
2021/06/15 21:14:43;;;;;;;4.43;3.27;;;23.10;56.40;;;;;;10454595;28;20296;-78
2021/06/15 21:19:47;;;;;;;3.63;3.33;;;23.00;56.90;;;;;;10453470;28;20308;-78
2021/06/15 21:24:49;;;;;;;4.97;3.97;;;23.00;57.00;;;;;;10452096;28;20231;-78
2021/06/15 21:29:51;;;;;;;3.63;3.33;;;22.90;57.50;;;;;;10452690;28;20377;-78
2021/06/15 21:34:55;;;;;;;4.37;3.97;;;22.90;58.10;;;;;;10454452;28;20666;-78
2021/06/15 21:39:57;;;;;;;4.30;3.60;;;22.80;58.30;;;;;;10455093;28;20588;-77
2021/06/15 21:44:59;;;;;;;3.37;3.13;;;22.80;58.70;;;;;;10460060;28;20228;-77
2021/06/15 21:50:03;;;;;;;3.97;3.53;;;22.80;58.60;;;;;;10456272;28;20280;-78
2021/06/15 21:55:06;;;;;;;3.80;3.57;;;22.80;58.80;;;;;;10459164;28;20217;-78
2021/06/15 22:00:13;;;;;;;3.20;3.00;;;22.70;58.90;;;;;;10461824;28;20213;-77
2021/06/15 22:05:17;;;;;;;3.43;3.13;;;22.70;60.00;;;;;;10444769;28;20260;-77
2021/06/15 22:10:19;;;;;;;4.20;3.40;;;22.70;59.50;;;;;;10444100;28;20209;-78
2021/06/15 22:15:22;;;;;;;5.37;4.00;;;22.60;59.50;;;;;;10458765;28;20225;-78
2021/06/15 22:20:28;;;;;;;3.33;3.13;;;22.50;60.10;;;;;;10450886;28;20221;-77
2021/06/15 22:25:33;;;;;;;3.80;3.50;;;22.50;61.90;;;;;;10450097;28;20225;-78
2021/06/15 22:30:35;;;;;;;3.23;2.80;;;22.50;59.70;;;;;;10457858;28;20216;-78
2021/06/15 22:35:40;;;;;;;3.10;2.90;;;22.40;60.60;;;;;;10458007;28;20209;-78
2021/06/15 22:40:42;;;;;;;3.67;3.10;;;22.30;61.70;;;;;;10458098;28;20257;-78
2021/06/15 22:45:44;;;;;;;3.17;2.97;;;22.30;62.30;;;;;;10432961;28;20304;-78
2021/06/15 22:50:48;;;;;;;3.30;3.00;;;22.20;63.20;;;;;;10435819;28;20201;-78
2021/06/15 22:55:50;;;;;;;3.10;2.90;;;22.20;63.60;;;;;;10457141;28;20681;-78
2021/06/15 23:00:53;;;;;;;3.27;3.00;;;22.20;63.00;;;;;;10448544;28;20236;-78
2021/06/15 23:05:57;;;;;;;3.00;2.80;;;22.10;63.30;;;;;;10517399;22;20220;-81
2021/06/15 23:10:59;;;;;;;2.67;2.47;;;22.10;62.80;;;;;;10483231;28;20750;-80
2021/06/15 23:16:01;;;;;;;3.13;2.93;;;22.10;63.20;;;;;;10530023;28;20247;-79
2021/06/15 23:21:05;;;;;;;3.47;3.27;;;22.00;64.50;;;;;;10528872;28;20216;-79
2021/06/15 23:26:07;;;;;;;3.57;3.27;;;21.90;64.10;;;;;;10530113;28;20250;-79
2021/06/15 23:31:09;;;;;;;3.83;3.53;;;21.90;64.30;;;;;;10533273;28;20562;-79
2021/06/15 23:36:12;;;;;;;4.07;2.90;;;21.90;64.20;;;;;;10530834;28;20260;-79
2021/06/15 23:41:15;;;;;;;3.27;3.07;;;21.90;64.60;;;;;;10514507;28;20215;-79
2021/06/15 23:46:17;;;;;;;2.90;2.70;;;21.80;65.50;;;;;;10530145;28;20279;-79
2021/06/15 23:51:20;;;;;;;3.30;3.10;;;21.70;65.70;;;;;;10528641;28;20635;-79
2021/06/15 23:56:22;;;;;;;3.10;2.90;;;21.70;66.50;;;;;;10526757;28;20200;-79
